First Coast — WCR9075 — position and weather

sailwx.info

Track history (hours):
 
Tides and Currents Weather Stations Pressure Air Temp Water Temp Dewpoint Dewpoint Depression Visibility Wind Speed Wind Dir Waves Ship Positions

First Coast

More information available from US FCC via Universal Licensing System and Coast Guard Vessel Documentation Center.

Last reported at 2014-Jul-24 19:33 UTC. Time now 2014-Jul-24 20:12 UTC.
Position N 40°40' W 074°04'.

; draft 3.5 m.

Type: Tug. MMSI: 367024280.

Date/timePositionNaut miles runAvg speedWind from/ knotsBaromVisibWave heightAir tempDewpointWater temp
2014-Jul-24 19:33N 40°40' W 074°04'3 2.6
2014-Jul-24 18:32N 40°39' W 074°07'0 0.1
2014-Jul-24 10:27N 40°39' W 074°07'3 3.8
2014-Jul-24 09:33N 40°38' W 074°03'1210.2
2014-Jul-24 08:23N 40°28' W 073°54'4010.4
2014-Jul-24 04:33N 39°49' W 074°01'1110.7
2014-Jul-24 03:33N 39°38' W 074°06'2310.9
2014-Jul-24 01:29N 39°20' W 074°22'1010.9
2014-Jul-24 00:33N 39°12' W 074°30'1110.8
2014-Jul-23 23:33N 39°03' W 074°39'1110.7
2014-Jul-23 22:33N 38°54' W 074°46'10 9.8
2014-Jul-23 21:33N 38°48' W 074°56'74 2.7
2014-Jul-22 18:26N 39°11' W 076°28'6 7.0
2014-Jul-22 17:33N 39°15' W 076°34'0 0.4
2014-Jul-22 16:33N 39°15' W 076°34'0 0.0
2014-Jul-22 15:33N 39°15' W 076°34'0 0.0
2014-Jul-22 14:33N 39°15' W 076°34'0 0.0
2014-Jul-22 13:33N 39°15' W 076°34'0 0.0
2014-Jul-22 12:33N 39°15' W 076°34'0 0.0
2014-Jul-22 11:33N 39°15' W 076°34'2 2.1
2014-Jul-22 10:33N 39°14' W 076°33'14 6.8
2014-Jul-22 08:33N 39°13' W 076°15'38 7.6
2014-Jul-22 03:33N 39°34' W 075°34'8 7.8
2014-Jul-22 02:33N 39°41' W 075°31'  
2014-Jul-18 12:27N 39°60' W 075°04'79 2.6
2014-Jul-17 06:15N 39°09' W 076°21'5 7.1
2014-Jul-17 05:33N 39°11' W 076°27'6 6.5
2014-Jul-17 04:33N 39°15' W 076°34'0 0.1
2014-Jul-17 03:29N 39°15' W 076°34'0 0.0
2014-Jul-17 02:33N 39°15' W 076°34'0 0.0
2014-Jul-17 01:33N 39°15' W 076°34'0 0.0
2014-Jul-17 00:33N 39°15' W 076°34'0 0.0
2014-Jul-16 23:34N 39°15' W 076°34'0 0.0
2014-Jul-16 22:33N 39°15' W 076°34'0 0.0
2014-Jul-16 21:33N 39°15' W 076°34'0 0.0
2014-Jul-16 20:33N 39°15' W 076°34'0 0.0
2014-Jul-16 19:31N 39°15' W 076°34'0 0.0
2014-Jul-16 18:33N 39°15' W 076°34'0 0.0
2014-Jul-16 17:22N 39°15' W 076°34'0 0.0
2014-Jul-16 16:33N 39°15' W 076°34'2 2.0
2014-Jul-16 15:33N 39°14' W 076°33'6 6.2
2014-Jul-16 14:33N 39°11' W 076°26'74 3.0
2014-Jul-15 14:04N 39°54' W 075°08'3 4.6
2014-Jul-15 13:23N 39°54' W 075°12'11 2.7
2014-Jul-15 09:21N 39°48' W 075°25'  
Track history (hours):
 
Tides and Currents Weather Stations Pressure Air Temp Water Temp Dewpoint Dewpoint Depression Visibility Wind Speed Wind Dir Waves Ship Positions

First Coast

More information available from US FCC via Universal Licensing System and Coast Guard Vessel Documentation Center.

Last reported at 2014-Jul-24 19:33 UTC. Time now 2014-Jul-24 20:12 UTC.
Position N 40°40' W 074°04'.

; draft 3.5 m.

Type: Tug. MMSI: 367024280.

Date/timePositionNaut miles runAvg speedWind from/ knotsBaromVisibWave heightAir tempDewpointWater temp
2014-Jul-24 19:33N 40°40' W 074°04'3 2.6
2014-Jul-24 18:32N 40°39' W 074°07'0 0.1
2014-Jul-24 10:27N 40°39' W 074°07'3 3.8
2014-Jul-24 09:33N 40°38' W 074°03'1210.2
2014-Jul-24 08:23N 40°28' W 073°54'4010.4
2014-Jul-24 04:33N 39°49' W 074°01'1110.7
2014-Jul-24 03:33N 39°38' W 074°06'2310.9
2014-Jul-24 01:29N 39°20' W 074°22'1010.9
2014-Jul-24 00:33N 39°12' W 074°30'1110.8
2014-Jul-23 23:33N 39°03' W 074°39'1110.7
2014-Jul-23 22:33N 38°54' W 074°46'10 9.8
2014-Jul-23 21:33N 38°48' W 074°56'74 2.7
2014-Jul-22 18:26N 39°11' W 076°28'6 7.0
2014-Jul-22 17:33N 39°15' W 076°34'0 0.4
2014-Jul-22 16:33N 39°15' W 076°34'0 0.0
2014-Jul-22 15:33N 39°15' W 076°34'0 0.0
2014-Jul-22 14:33N 39°15' W 076°34'0 0.0
2014-Jul-22 13:33N 39°15' W 076°34'0 0.0
2014-Jul-22 12:33N 39°15' W 076°34'0 0.0
2014-Jul-22 11:33N 39°15' W 076°34'2 2.1
2014-Jul-22 10:33N 39°14' W 076°33'14 6.8
2014-Jul-22 08:33N 39°13' W 076°15'38 7.6
2014-Jul-22 03:33N 39°34' W 075°34'8 7.8
2014-Jul-22 02:33N 39°41' W 075°31'  
2014-Jul-18 12:27N 39°60' W 075°04'79 2.6
2014-Jul-17 06:15N 39°09' W 076°21'5 7.1
2014-Jul-17 05:33N 39°11' W 076°27'6 6.5
2014-Jul-17 04:33N 39°15' W 076°34'0 0.1
2014-Jul-17 03:29N 39°15' W 076°34'0 0.0
2014-Jul-17 02:33N 39°15' W 076°34'0 0.0
2014-Jul-17 01:33N 39°15' W 076°34'0 0.0
2014-Jul-17 00:33N 39°15' W 076°34'0 0.0
2014-Jul-16 23:34N 39°15' W 076°34'0 0.0
2014-Jul-16 22:33N 39°15' W 076°34'0 0.0
2014-Jul-16 21:33N 39°15' W 076°34'0 0.0
2014-Jul-16 20:33N 39°15' W 076°34'0 0.0
2014-Jul-16 19:31N 39°15' W 076°34'0 0.0
2014-Jul-16 18:33N 39°15' W 076°34'0 0.0
2014-Jul-16 17:22N 39°15' W 076°34'0 0.0
2014-Jul-16 16:33N 39°15' W 076°34'2 2.0
2014-Jul-16 15:33N 39°14' W 076°33'6 6.2
2014-Jul-16 14:33N 39°11' W 076°26'74 3.0
2014-Jul-15 14:04N 39°54' W 075°08'3 4.6
2014-Jul-15 13:23N 39°54' W 075°12'11 2.7
2014-Jul-15 09:21N 39°48' W 075°25'  

Dump ship's entire track history